sensor_id;sensor_type;location;lat;lon;timestamp;P1;durP1;ratioP1;P2;durP2;ratioP2
39620;SDS011;25309;48.686;9.170;2023-02-14T00:00:09;21.83;;;13.17;;
39620;SDS011;25309;48.686;9.170;2023-02-14T00:02:37;20.93;;;12.87;;
39620;SDS011;25309;48.686;9.170;2023-02-14T00:05:04;23.17;;;13.40;;
39620;SDS011;25309;48.686;9.170;2023-02-14T00:07:31;21.40;;;12.37;;
39620;SDS011;25309;48.686;9.170;2023-02-14T00:09:58;23.87;;;13.67;;
39620;SDS011;25309;48.686;9.170;2023-02-14T00:12:25;20.83;;;13.17;;
39620;SDS011;25309;48.686;9.170;2023-02-14T00:14:53;20.93;;;13.13;;
39620;SDS011;25309;48.686;9.170;2023-02-14T00:17:39;22.03;;;12.90;;
39620;SDS011;25309;48.686;9.170;2023-02-14T00:20:06;22.27;;;12.77;;
39620;SDS011;25309;48.686;9.170;2023-02-14T00:22:33;21.77;;;12.80;;
39620;SDS011;25309;48.686;9.170;2023-02-14T00:25:00;21.63;;;12.07;;
39620;SDS011;25309;48.686;9.170;2023-02-14T00:27:27;19.70;;;12.87;;
39620;SDS011;25309;48.686;9.170;2023-02-14T00:29:55;21.37;;;12.97;;
39620;SDS011;25309;48.686;9.170;2023-02-14T00:32:27;21.90;;;12.50;;
39620;SDS011;25309;48.686;9.170;2023-02-14T00:34:54;20.57;;;12.20;;
39620;SDS011;25309;48.686;9.170;2023-02-14T00:37:21;22.03;;;12.77;;
39620;SDS011;25309;48.686;9.170;2023-02-14T00:39:51;20.20;;;12.53;;
39620;SDS011;25309;48.686;9.170;2023-02-14T00:42:18;20.77;;;11.63;;
39620;SDS011;25309;48.686;9.170;2023-02-14T00:44:45;19.90;;;11.90;;
39620;SDS011;25309;48.686;9.170;2023-02-14T00:47:13;18.60;;;11.87;;
39620;SDS011;25309;48.686;9.170;2023-02-14T00:49:40;19.47;;;11.53;;
39620;SDS011;25309;48.686;9.170;2023-02-14T00:52:07;23.03;;;12.40;;
39620;SDS011;25309;48.686;9.170;2023-02-14T00:54:34;20.63;;;12.80;;
39620;SDS011;25309;48.686;9.170;2023-02-14T00:57:00;20.83;;;12.73;;
39620;SDS011;25309;48.686;9.170;2023-02-14T00:59:27;19.37;;;11.60;;
39620;SDS011;25309;48.686;9.170;2023-02-14T01:01:54;18.80;;;12.40;;
39620;SDS011;25309;48.686;9.170;2023-02-14T01:04:23;21.17;;;12.57;;
39620;SDS011;25309;48.686;9.170;2023-02-14T01:06:51;22.10;;;12.93;;
39620;SDS011;25309;48.686;9.170;2023-02-14T01:09:18;19.30;;;11.87;;
39620;SDS011;25309;48.686;9.170;2023-02-14T01:11:45;18.83;;;11.97;;
39620;SDS011;25309;48.686;9.170;2023-02-14T01:14:13;19.63;;;12.43;;
39620;SDS011;25309;48.686;9.170;2023-02-14T01:16:41;19.30;;;11.70;;
39620;SDS011;25309;48.686;9.170;2023-02-14T01:19:08;20.83;;;12.20;;
39620;SDS011;25309;48.686;9.170;2023-02-14T01:21:36;20.10;;;11.93;;
39620;SDS011;25309;48.686;9.170;2023-02-14T01:24:03;21.47;;;12.10;;
39620;SDS011;25309;48.686;9.170;2023-02-14T01:26:33;19.33;;;11.23;;
39620;SDS011;25309;48.686;9.170;2023-02-14T01:29:00;21.27;;;12.40;;
39620;SDS011;25309;48.686;9.170;2023-02-14T01:31:29;18.33;;;11.40;;
39620;SDS011;25309;48.686;9.170;2023-02-14T01:33:57;19.70;;;11.20;;
39620;SDS011;25309;48.686;9.170;2023-02-14T01:36:28;20.23;;;12.03;;
39620;SDS011;25309;48.686;9.170;2023-02-14T01:38:58;22.07;;;12.87;;
39620;SDS011;25309;48.686;9.170;2023-02-14T01:41:28;20.17;;;12.57;;
39620;SDS011;25309;48.686;9.170;2023-02-14T01:43:58;18.93;;;11.67;;
39620;SDS011;25309;48.686;9.170;2023-02-14T01:46:27;19.67;;;11.70;;
39620;SDS011;25309;48.686;9.170;2023-02-14T01:48:56;21.93;;;12.10;;
39620;SDS011;25309;48.686;9.170;2023-02-14T01:51:27;20.33;;;12.13;;
39620;SDS011;25309;48.686;9.170;2023-02-14T01:53:54;18.73;;;11.77;;
39620;SDS011;25309;48.686;9.170;2023-02-14T01:56:25;21.43;;;12.40;;
39620;SDS011;25309;48.686;9.170;2023-02-14T01:58:56;21.90;;;12.00;;
39620;SDS011;25309;48.686;9.170;2023-02-14T02:01:26;18.20;;;11.20;;
39620;SDS011;25309;48.686;9.170;2023-02-14T02:03:55;18.33;;;11.60;;
39620;SDS011;25309;48.686;9.170;2023-02-14T02:06:26;20.77;;;12.97;;
39620;SDS011;25309;48.686;9.170;2023-02-14T02:08:58;20.73;;;12.50;;
39620;SDS011;25309;48.686;9.170;2023-02-14T02:11:33;17.97;;;11.67;;
39620;SDS011;25309;48.686;9.170;2023-02-14T02:14:00;18.37;;;11.37;;
39620;SDS011;25309;48.686;9.170;2023-02-14T02:16:43;18.53;;;11.20;;
39620;SDS011;25309;48.686;9.170;2023-02-14T02:19:32;19.10;;;11.97;;
39620;SDS011;25309;48.686;9.170;2023-02-14T02:22:35;20.27;;;11.60;;
39620;SDS011;25309;48.686;9.170;2023-02-14T02:25:29;20.27;;;11.57;;
39620;SDS011;25309;48.686;9.170;2023-02-14T02:28:19;20.03;;;11.80;;
39620;SDS011;25309;48.686;9.170;2023-02-14T02:31:20;20.10;;;12.47;;
39620;SDS011;25309;48.686;9.170;2023-02-14T02:37:19;20.27;;;11.20;;
39620;SDS011;25309;48.686;9.170;2023-02-14T02:39:57;17.10;;;11.00;;
39620;SDS011;25309;48.686;9.170;2023-02-14T02:42:38;18.23;;;11.43;;
39620;SDS011;25309;48.686;9.170;2023-02-14T02:45:20;18.83;;;11.20;;
39620;SDS011;25309;48.686;9.170;2023-02-14T02:47:55;20.83;;;11.87;;
39620;SDS011;25309;48.686;9.170;2023-02-14T02:50:30;19.27;;;10.73;;
39620;SDS011;25309;48.686;9.170;2023-02-14T02:53:22;18.80;;;11.07;;
39620;SDS011;25309;48.686;9.170;2023-02-14T02:55:53;18.93;;;11.27;;
39620;SDS011;25309;48.686;9.170;2023-02-14T02:58:42;19.37;;;11.40;;
39620;SDS011;25309;48.686;9.170;2023-02-14T03:01:13;20.33;;;11.13;;
39620;SDS011;25309;48.686;9.170;2023-02-14T03:03:44;20.10;;;11.33;;
39620;SDS011;25309;48.686;9.170;2023-02-14T03:06:33;18.03;;;11.20;;
39620;SDS011;25309;48.686;9.170;2023-02-14T03:09:09;16.97;;;10.93;;
39620;SDS011;25309;48.686;9.170;2023-02-14T03:11:38;19.53;;;11.37;;
39620;SDS011;25309;48.686;9.170;2023-02-14T03:14:13;18.70;;;11.10;;
39620;SDS011;25309;48.686;9.170;2023-02-14T03:16:49;18.37;;;11.77;;
39620;SDS011;25309;48.686;9.170;2023-02-14T03:19:35;17.67;;;10.90;;
39620;SDS011;25309;48.686;9.170;2023-02-14T03:22:39;18.57;;;10.50;;
39620;SDS011;25309;48.686;9.170;2023-02-14T03:25:18;18.90;;;10.93;;
39620;SDS011;25309;48.686;9.170;2023-02-14T03:28:01;18.53;;;10.77;;
39620;SDS011;25309;48.686;9.170;2023-02-14T03:30:39;20.93;;;11.67;;
39620;SDS011;25309;48.686;9.170;2023-02-14T03:33:15;18.80;;;11.40;;
39620;SDS011;25309;48.686;9.170;2023-02-14T03:35:51;17.77;;;10.73;;
39620;SDS011;25309;48.686;9.170;2023-02-14T03:38:29;17.43;;;10.50;;
39620;SDS011;25309;48.686;9.170;2023-02-14T03:41:02;19.70;;;11.03;;
39620;SDS011;25309;48.686;9.170;2023-02-14T03:43:32;16.97;;;10.43;;
39620;SDS011;25309;48.686;9.170;2023-02-14T03:46:03;17.80;;;10.10;;
39620;SDS011;25309;48.686;9.170;2023-02-14T03:48:34;19.97;;;11.43;;
39620;SDS011;25309;48.686;9.170;2023-02-14T03:51:03;18.70;;;10.97;;
39620;SDS011;25309;48.686;9.170;2023-02-14T03:53:32;15.63;;;9.90;;
39620;SDS011;25309;48.686;9.170;2023-02-14T03:56:05;19.97;;;10.90;;
39620;SDS011;25309;48.686;9.170;2023-02-14T03:58:37;16.97;;;10.50;;
39620;SDS011;25309;48.686;9.170;2023-02-14T04:01:07;16.77;;;10.63;;
39620;SDS011;25309;48.686;9.170;2023-02-14T04:03:39;17.30;;;10.17;;
39620;SDS011;25309;48.686;9.170;2023-02-14T04:06:08;18.57;;;10.47;;
39620;SDS011;25309;48.686;9.170;2023-02-14T04:08:35;17.40;;;10.03;;
39620;SDS011;25309;48.686;9.170;2023-02-14T04:11:04;15.90;;;9.40;;
39620;SDS011;25309;48.686;9.170;2023-02-14T04:13:31;17.07;;;10.03;;
39620;SDS011;25309;48.686;9.170;2023-02-14T04:16:00;18.33;;;10.27;;
39620;SDS011;25309;48.686;9.170;2023-02-14T04:18:27;16.93;;;10.47;;
39620;SDS011;25309;48.686;9.170;2023-02-14T04:21:13;18.03;;;10.80;;
39620;SDS011;25309;48.686;9.170;2023-02-14T04:23:40;18.43;;;10.97;;
39620;SDS011;25309;48.686;9.170;2023-02-14T04:26:08;16.83;;;10.43;;
39620;SDS011;25309;48.686;9.170;2023-02-14T04:28:35;18.00;;;10.40;;
39620;SDS011;25309;48.686;9.170;2023-02-14T04:31:03;20.67;;;11.53;;
39620;SDS011;25309;48.686;9.170;2023-02-14T04:33:32;18.27;;;10.63;;
39620;SDS011;25309;48.686;9.170;2023-02-14T04:35:59;16.47;;;11.00;;
39620;SDS011;25309;48.686;9.170;2023-02-14T04:38:26;16.07;;;10.17;;
39620;SDS011;25309;48.686;9.170;2023-02-14T04:40:54;16.13;;;10.00;;
39620;SDS011;25309;48.686;9.170;2023-02-14T04:43:22;15.30;;;9.87;;
39620;SDS011;25309;48.686;9.170;2023-02-14T04:45:49;16.10;;;9.93;;
39620;SDS011;25309;48.686;9.170;2023-02-14T04:48:16;14.83;;;9.77;;
39620;SDS011;25309;48.686;9.170;2023-02-14T04:50:43;16.17;;;9.93;;
39620;SDS011;25309;48.686;9.170;2023-02-14T04:53:10;17.50;;;10.17;;
39620;SDS011;25309;48.686;9.170;2023-02-14T04:55:37;15.13;;;9.57;;
39620;SDS011;25309;48.686;9.170;2023-02-14T04:58:04;14.97;;;9.97;;
39620;SDS011;25309;48.686;9.170;2023-02-14T05:00:32;16.20;;;9.97;;
39620;SDS011;25309;48.686;9.170;2023-02-14T05:02:59;15.77;;;10.23;;
39620;SDS011;25309;48.686;9.170;2023-02-14T05:05:26;16.57;;;10.47;;
39620;SDS011;25309;48.686;9.170;2023-02-14T05:07:53;17.13;;;11.30;;
39620;SDS011;25309;48.686;9.170;2023-02-14T05:10:20;17.00;;;11.07;;
39620;SDS011;25309;48.686;9.170;2023-02-14T05:12:47;17.53;;;11.33;;
39620;SDS011;25309;48.686;9.170;2023-02-14T05:15:14;15.23;;;10.00;;
39620;SDS011;25309;48.686;9.170;2023-02-14T05:17:42;16.70;;;11.03;;
39620;SDS011;25309;48.686;9.170;2023-02-14T05:20:09;16.77;;;11.43;;
39620;SDS011;25309;48.686;9.170;2023-02-14T05:22:36;18.10;;;12.47;;
39620;SDS011;25309;48.686;9.170;2023-02-14T05:25:03;16.67;;;11.57;;
39620;SDS011;25309;48.686;9.170;2023-02-14T05:27:30;17.97;;;12.00;;
39620;SDS011;25309;48.686;9.170;2023-02-14T05:29:57;17.03;;;11.27;;
39620;SDS011;25309;48.686;9.170;2023-02-14T05:32:24;16.83;;;11.57;;
39620;SDS011;25309;48.686;9.170;2023-02-14T05:34:52;16.70;;;10.57;;
39620;SDS011;25309;48.686;9.170;2023-02-14T05:37:19;17.37;;;10.50;;
39620;SDS011;25309;48.686;9.170;2023-02-14T05:39:46;17.70;;;11.33;;
39620;SDS011;25309;48.686;9.170;2023-02-14T05:42:13;16.60;;;9.93;;
39620;SDS011;25309;48.686;9.170;2023-02-14T05:44:39;18.00;;;10.93;;
39620;SDS011;25309;48.686;9.170;2023-02-14T05:47:06;18.10;;;11.17;;
39620;SDS011;25309;48.686;9.170;2023-02-14T05:49:33;16.10;;;10.80;;
39620;SDS011;25309;48.686;9.170;2023-02-14T05:52:02;15.30;;;10.43;;
39620;SDS011;25309;48.686;9.170;2023-02-14T05:54:29;17.77;;;10.80;;
39620;SDS011;25309;48.686;9.170;2023-02-14T05:56:56;18.20;;;11.17;;
39620;SDS011;25309;48.686;9.170;2023-02-14T05:59:23;20.20;;;12.23;;
39620;SDS011;25309;48.686;9.170;2023-02-14T06:01:50;18.07;;;12.20;;
39620;SDS011;25309;48.686;9.170;2023-02-14T06:04:16;18.87;;;13.23;;
39620;SDS011;25309;48.686;9.170;2023-02-14T06:06:43;18.27;;;12.13;;
39620;SDS011;25309;48.686;9.170;2023-02-14T06:09:12;21.63;;;13.20;;
39620;SDS011;25309;48.686;9.170;2023-02-14T06:11:39;22.10;;;13.00;;
39620;SDS011;25309;48.686;9.170;2023-02-14T06:14:06;19.40;;;13.10;;
39620;SDS011;25309;48.686;9.170;2023-02-14T06:16:33;20.23;;;12.50;;
39620;SDS011;25309;48.686;9.170;2023-02-14T06:19:00;22.73;;;13.33;;
39620;SDS011;25309;48.686;9.170;2023-02-14T06:21:27;21.60;;;12.77;;
39620;SDS011;25309;48.686;9.170;2023-02-14T06:23:54;20.60;;;13.27;;
39620;SDS011;25309;48.686;9.170;2023-02-14T06:26:22;20.87;;;12.70;;
39620;SDS011;25309;48.686;9.170;2023-02-14T06:28:53;21.23;;;12.70;;
39620;SDS011;25309;48.686;9.170;2023-02-14T06:31:21;21.33;;;14.17;;
39620;SDS011;25309;48.686;9.170;2023-02-14T06:33:48;21.23;;;14.10;;
39620;SDS011;25309;48.686;9.170;2023-02-14T06:36:15;21.27;;;13.70;;
39620;SDS011;25309;48.686;9.170;2023-02-14T06:38:42;20.43;;;11.73;;
39620;SDS011;25309;48.686;9.170;2023-02-14T06:41:09;21.13;;;13.10;;
39620;SDS011;25309;48.686;9.170;2023-02-14T06:43:38;19.70;;;12.93;;
39620;SDS011;25309;48.686;9.170;2023-02-14T06:46:05;23.97;;;18.57;;
39620;SDS011;25309;48.686;9.170;2023-02-14T06:48:32;28.37;;;20.27;;
39620;SDS011;25309;48.686;9.170;2023-02-14T06:50:59;25.23;;;18.70;;
39620;SDS011;25309;48.686;9.170;2023-02-14T06:53:27;29.23;;;19.03;;
39620;SDS011;25309;48.686;9.170;2023-02-14T06:55:54;27.87;;;19.23;;
39620;SDS011;25309;48.686;9.170;2023-02-14T06:58:21;25.63;;;18.53;;
39620;SDS011;25309;48.686;9.170;2023-02-14T07:00:49;27.67;;;18.87;;
39620;SDS011;25309;48.686;9.170;2023-02-14T07:03:16;27.80;;;18.13;;
39620;SDS011;25309;48.686;9.170;2023-02-14T07:05:43;27.43;;;18.10;;
39620;SDS011;25309;48.686;9.170;2023-02-14T07:08:10;26.60;;;17.27;;
39620;SDS011;25309;48.686;9.170;2023-02-14T07:10:37;27.13;;;18.17;;
39620;SDS011;25309;48.686;9.170;2023-02-14T07:13:04;27.53;;;18.27;;
39620;SDS011;25309;48.686;9.170;2023-02-14T07:15:31;26.37;;;16.60;;
39620;SDS011;25309;48.686;9.170;2023-02-14T07:18:00;26.93;;;19.63;;
39620;SDS011;25309;48.686;9.170;2023-02-14T07:20:27;26.13;;;18.23;;
39620;SDS011;25309;48.686;9.170;2023-02-14T07:22:53;26.17;;;16.03;;
39620;SDS011;25309;48.686;9.170;2023-02-14T07:25:20;27.40;;;18.23;;
39620;SDS011;25309;48.686;9.170;2023-02-14T07:27:47;28.43;;;17.50;;
39620;SDS011;25309;48.686;9.170;2023-02-14T07:30:14;28.23;;;18.50;;
39620;SDS011;25309;48.686;9.170;2023-02-14T07:32:42;28.07;;;17.20;;
39620;SDS011;25309;48.686;9.170;2023-02-14T07:35:10;24.47;;;15.80;;
39620;SDS011;25309;48.686;9.170;2023-02-14T07:37:40;26.57;;;17.17;;
39620;SDS011;25309;48.686;9.170;2023-02-14T07:40:08;28.00;;;17.40;;
39620;SDS011;25309;48.686;9.170;2023-02-14T07:42:40;29.13;;;17.57;;
39620;SDS011;25309;48.686;9.170;2023-02-14T07:45:07;27.90;;;15.60;;
39620;SDS011;25309;48.686;9.170;2023-02-14T07:47:47;25.13;;;16.30;;
39620;SDS011;25309;48.686;9.170;2023-02-14T07:50:15;26.03;;;15.90;;
39620;SDS011;25309;48.686;9.170;2023-02-14T07:52:43;28.57;;;16.70;;
39620;SDS011;25309;48.686;9.170;2023-02-14T07:55:10;26.60;;;16.17;;
39620;SDS011;25309;48.686;9.170;2023-02-14T07:57:37;26.87;;;15.97;;
39620;SDS011;25309;48.686;9.170;2023-02-14T08:00:05;23.37;;;14.43;;
39620;SDS011;25309;48.686;9.170;2023-02-14T08:02:37;23.03;;;14.47;;
39620;SDS011;25309;48.686;9.170;2023-02-14T08:05:04;22.50;;;14.60;;
39620;SDS011;25309;48.686;9.170;2023-02-14T08:07:33;23.13;;;14.60;;
39620;SDS011;25309;48.686;9.170;2023-02-14T08:09:59;25.00;;;15.63;;
39620;SDS011;25309;48.686;9.170;2023-02-14T08:12:26;23.17;;;14.70;;
39620;SDS011;25309;48.686;9.170;2023-02-14T08:15:12;22.07;;;13.83;;
39620;SDS011;25309;48.686;9.170;2023-02-14T08:17:58;23.77;;;14.87;;
39620;SDS011;25309;48.686;9.170;2023-02-14T08:20:24;21.20;;;13.33;;
39620;SDS011;25309;48.686;9.170;2023-02-14T08:22:53;20.87;;;14.17;;
39620;SDS011;25309;48.686;9.170;2023-02-14T08:25:20;23.23;;;13.93;;
39620;SDS011;25309;48.686;9.170;2023-02-14T08:27:47;20.90;;;13.47;;
39620;SDS011;25309;48.686;9.170;2023-02-14T08:30:14;17.57;;;12.73;;
39620;SDS011;25309;48.686;9.170;2023-02-14T08:32:41;18.03;;;12.57;;
39620;SDS011;25309;48.686;9.170;2023-02-14T08:35:08;18.73;;;13.13;;
39620;SDS011;25309;48.686;9.170;2023-02-14T08:37:35;18.67;;;12.10;;
39620;SDS011;25309;48.686;9.170;2023-02-14T08:40:04;16.33;;;11.57;;
39620;SDS011;25309;48.686;9.170;2023-02-14T08:42:32;17.23;;;12.27;;
39620;SDS011;25309;48.686;9.170;2023-02-14T08:44:59;20.83;;;13.13;;
39620;SDS011;25309;48.686;9.170;2023-02-14T08:47:26;19.27;;;13.20;;
39620;SDS011;25309;48.686;9.170;2023-02-14T08:49:53;18.57;;;12.77;;
39620;SDS011;25309;48.686;9.170;2023-02-14T08:52:19;16.47;;;11.27;;
39620;SDS011;25309;48.686;9.170;2023-02-14T08:54:46;15.60;;;11.07;;
39620;SDS011;25309;48.686;9.170;2023-02-14T08:57:15;14.87;;;11.07;;
39620;SDS011;25309;48.686;9.170;2023-02-14T08:59:42;17.00;;;11.87;;
39620;SDS011;25309;48.686;9.170;2023-02-14T09:02:10;17.53;;;11.70;;
39620;SDS011;25309;48.686;9.170;2023-02-14T09:04:38;16.20;;;11.57;;
39620;SDS011;25309;48.686;9.170;2023-02-14T09:07:05;15.67;;;11.70;;
39620;SDS011;25309;48.686;9.170;2023-02-14T09:09:32;16.77;;;12.10;;
39620;SDS011;25309;48.686;9.170;2023-02-14T09:12:02;14.57;;;11.30;;
39620;SDS011;25309;48.686;9.170;2023-02-14T09:14:33;16.40;;;12.47;;
39620;SDS011;25309;48.686;9.170;2023-02-14T09:17:00;17.87;;;12.03;;
39620;SDS011;25309;48.686;9.170;2023-02-14T09:19:30;15.30;;;11.40;;
39620;SDS011;25309;48.686;9.170;2023-02-14T09:21:57;15.03;;;11.03;;
39620;SDS011;25309;48.686;9.170;2023-02-14T09:24:25;14.70;;;11.07;;
39620;SDS011;25309;48.686;9.170;2023-02-14T09:26:52;14.07;;;10.67;;
39620;SDS011;25309;48.686;9.170;2023-02-14T09:29:20;13.03;;;10.60;;
39620;SDS011;25309;48.686;9.170;2023-02-14T09:31:48;11.73;;;9.83;;
39620;SDS011;25309;48.686;9.170;2023-02-14T09:34:17;13.60;;;10.63;;
39620;SDS011;25309;48.686;9.170;2023-02-14T09:37:03;13.57;;;10.27;;
39620;SDS011;25309;48.686;9.170;2023-02-14T09:39:48;14.47;;;10.17;;
39620;SDS011;25309;48.686;9.170;2023-02-14T09:42:21;11.83;;;9.53;;
39620;SDS011;25309;48.686;9.170;2023-02-14T09:45:08;13.87;;;10.27;;
39620;SDS011;25309;48.686;9.170;2023-02-14T09:47:41;14.23;;;9.97;;
39620;SDS011;25309;48.686;9.170;2023-02-14T09:50:15;12.07;;;9.80;;
39620;SDS011;25309;48.686;9.170;2023-02-14T09:52:45;14.07;;;10.47;;
39620;SDS011;25309;48.686;9.170;2023-02-14T09:55:16;15.13;;;10.93;;
39620;SDS011;25309;48.686;9.170;2023-02-14T09:57:46;12.87;;;10.40;;
39620;SDS011;25309;48.686;9.170;2023-02-14T10:00:26;12.57;;;10.20;;
39620;SDS011;25309;48.686;9.170;2023-02-14T10:03:00;12.63;;;9.70;;
39620;SDS011;25309;48.686;9.170;2023-02-14T10:05:43;14.03;;;10.17;;
39620;SDS011;25309;48.686;9.170;2023-02-14T10:08:21;12.03;;;10.07;;
39620;SDS011;25309;48.686;9.170;2023-02-14T10:11:00;11.90;;;10.03;;
39620;SDS011;25309;48.686;9.170;2023-02-14T10:13:32;12.40;;;9.43;;
39620;SDS011;25309;48.686;9.170;2023-02-14T10:16:07;10.57;;;9.10;;
39620;SDS011;25309;48.686;9.170;2023-02-14T10:18:44;12.07;;;9.43;;
39620;SDS011;25309;48.686;9.170;2023-02-14T10:21:16;12.00;;;9.30;;
39620;SDS011;25309;48.686;9.170;2023-02-14T10:23:50;13.27;;;9.60;;
39620;SDS011;25309;48.686;9.170;2023-02-14T10:26:23;12.37;;;9.97;;
39620;SDS011;25309;48.686;9.170;2023-02-14T10:28:55;10.57;;;8.57;;
39620;SDS011;25309;48.686;9.170;2023-02-14T10:31:23;10.67;;;8.97;;
39620;SDS011;25309;48.686;9.170;2023-02-14T10:33:54;11.13;;;9.13;;
39620;SDS011;25309;48.686;9.170;2023-02-14T10:36:41;12.10;;;8.93;;
39620;SDS011;25309;48.686;9.170;2023-02-14T10:39:33;9.63;;;8.43;;
39620;SDS011;25309;48.686;9.170;2023-02-14T10:42:19;10.50;;;9.13;;
39620;SDS011;25309;48.686;9.170;2023-02-14T10:44:53;12.20;;;8.97;;
39620;SDS011;25309;48.686;9.170;2023-02-14T10:47:32;13.57;;;8.80;;
39620;SDS011;25309;48.686;9.170;2023-02-14T10:50:10;11.30;;;8.90;;
39620;SDS011;25309;48.686;9.170;2023-02-14T10:52:43;10.50;;;8.80;;
39620;SDS011;25309;48.686;9.170;2023-02-14T10:55:17;11.23;;;8.23;;
39620;SDS011;25309;48.686;9.170;2023-02-14T10:57:57;12.27;;;9.63;;
39620;SDS011;25309;48.686;9.170;2023-02-14T11:00:29;11.10;;;9.13;;
39620;SDS011;25309;48.686;9.170;2023-02-14T11:03:00;10.70;;;9.33;;
39620;SDS011;25309;48.686;9.170;2023-02-14T11:05:33;11.97;;;10.13;;
39620;SDS011;25309;48.686;9.170;2023-02-14T11:08:10;10.83;;;9.20;;
39620;SDS011;25309;48.686;9.170;2023-02-14T11:10:39;12.67;;;9.37;;
39620;SDS011;25309;48.686;9.170;2023-02-14T11:15:57;12.13;;;9.53;;
39620;SDS011;25309;48.686;9.170;2023-02-14T11:18:26;12.40;;;9.23;;
39620;SDS011;25309;48.686;9.170;2023-02-14T11:21:00;11.20;;;9.50;;
39620;SDS011;25309;48.686;9.170;2023-02-14T11:23:33;10.90;;;9.70;;
39620;SDS011;25309;48.686;9.170;2023-02-14T11:26:01;11.87;;;9.90;;
39620;SDS011;25309;48.686;9.170;2023-02-14T11:28:30;13.17;;;10.70;;
39620;SDS011;25309;48.686;9.170;2023-02-14T11:30:57;14.10;;;10.90;;
39620;SDS011;25309;48.686;9.170;2023-02-14T11:33:28;12.17;;;10.23;;
39620;SDS011;25309;48.686;9.170;2023-02-14T11:36:01;13.07;;;10.87;;
39620;SDS011;25309;48.686;9.170;2023-02-14T11:38:32;14.27;;;10.30;;
39620;SDS011;25309;48.686;9.170;2023-02-14T11:41:02;10.77;;;9.63;;
39620;SDS011;25309;48.686;9.170;2023-02-14T11:43:31;12.23;;;9.73;;
39620;SDS011;25309;48.686;9.170;2023-02-14T11:46:04;11.10;;;9.10;;
39620;SDS011;25309;48.686;9.170;2023-02-14T11:48:45;10.63;;;9.13;;
39620;SDS011;25309;48.686;9.170;2023-02-14T11:51:25;11.37;;;9.77;;
39620;SDS011;25309;48.686;9.170;2023-02-14T11:53:57;11.77;;;10.00;;
39620;SDS011;25309;48.686;9.170;2023-02-14T11:56:42;11.97;;;9.97;;
39620;SDS011;25309;48.686;9.170;2023-02-14T11:59:13;11.30;;;9.93;;
39620;SDS011;25309;48.686;9.170;2023-02-14T12:01:53;11.83;;;10.30;;
39620;SDS011;25309;48.686;9.170;2023-02-14T12:04:22;11.07;;;9.87;;
39620;SDS011;25309;48.686;9.170;2023-02-14T12:10:03;11.73;;;9.90;;
39620;SDS011;25309;48.686;9.170;2023-02-14T12:12:49;11.60;;;9.40;;
39620;SDS011;25309;48.686;9.170;2023-02-14T12:15:22;10.77;;;9.00;;
39620;SDS011;25309;48.686;9.170;2023-02-14T12:17:52;11.33;;;9.53;;
39620;SDS011;25309;48.686;9.170;2023-02-14T12:20:27;10.87;;;9.47;;
39620;SDS011;25309;48.686;9.170;2023-02-14T12:23:03;11.73;;;9.90;;
39620;SDS011;25309;48.686;9.170;2023-02-14T12:25:38;11.23;;;9.50;;
39620;SDS011;25309;48.686;9.170;2023-02-14T12:28:10;11.83;;;9.30;;
39620;SDS011;25309;48.686;9.170;2023-02-14T12:30:40;11.17;;;9.77;;
39620;SDS011;25309;48.686;9.170;2023-02-14T12:33:08;11.27;;;10.13;;
39620;SDS011;25309;48.686;9.170;2023-02-14T12:35:44;11.50;;;9.33;;
39620;SDS011;25309;48.686;9.170;2023-02-14T12:38:17;11.37;;;9.10;;
39620;SDS011;25309;48.686;9.170;2023-02-14T12:40:56;11.23;;;9.77;;
39620;SDS011;25309;48.686;9.170;2023-02-14T12:43:40;11.63;;;9.57;;
39620;SDS011;25309;48.686;9.170;2023-02-14T12:46:16;12.33;;;9.90;;
39620;SDS011;25309;48.686;9.170;2023-02-14T12:49:07;12.40;;;10.37;;
39620;SDS011;25309;48.686;9.170;2023-02-14T12:51:58;13.37;;;10.33;;
39620;SDS011;25309;48.686;9.170;2023-02-14T12:54:40;12.37;;;10.00;;
39620;SDS011;25309;48.686;9.170;2023-02-14T12:57:30;13.53;;;11.10;;
39620;SDS011;25309;48.686;9.170;2023-02-14T13:00:10;14.93;;;10.23;;
39620;SDS011;25309;48.686;9.170;2023-02-14T13:02:53;16.43;;;11.07;;
39620;SDS011;25309;48.686;9.170;2023-02-14T13:05:52;12.67;;;10.27;;
39620;SDS011;25309;48.686;9.170;2023-02-14T13:08:28;15.27;;;10.07;;
39620;SDS011;25309;48.686;9.170;2023-02-14T13:11:14;12.83;;;9.77;;
39620;SDS011;25309;48.686;9.170;2023-02-14T13:13:57;13.90;;;9.27;;
39620;SDS011;25309;48.686;9.170;2023-02-14T13:16:32;14.33;;;9.30;;
39620;SDS011;25309;48.686;9.170;2023-02-14T13:19:05;11.53;;;9.60;;
39620;SDS011;25309;48.686;9.170;2023-02-14T13:21:39;10.87;;;8.60;;
39620;SDS011;25309;48.686;9.170;2023-02-14T13:24:11;12.20;;;9.47;;
39620;SDS011;25309;48.686;9.170;2023-02-14T13:26:43;10.97;;;9.07;;
39620;SDS011;25309;48.686;9.170;2023-02-14T13:29:15;11.63;;;9.60;;
39620;SDS011;25309;48.686;9.170;2023-02-14T13:31:45;12.10;;;9.67;;
39620;SDS011;25309;48.686;9.170;2023-02-14T13:34:16;11.20;;;8.93;;
39620;SDS011;25309;48.686;9.170;2023-02-14T13:36:50;12.00;;;9.37;;
39620;SDS011;25309;48.686;9.170;2023-02-14T13:39:20;10.90;;;9.60;;
39620;SDS011;25309;48.686;9.170;2023-02-14T13:41:53;10.53;;;8.80;;
39620;SDS011;25309;48.686;9.170;2023-02-14T13:47:14;12.43;;;9.50;;
39620;SDS011;25309;48.686;9.170;2023-02-14T13:49:47;12.10;;;9.13;;
39620;SDS011;25309;48.686;9.170;2023-02-14T13:55:06;11.70;;;9.80;;
39620;SDS011;25309;48.686;9.170;2023-02-14T13:57:36;11.90;;;9.63;;
39620;SDS011;25309;48.686;9.170;2023-02-14T14:03:05;13.50;;;9.67;;
39620;SDS011;25309;48.686;9.170;2023-02-14T14:05:46;12.13;;;9.80;;
39620;SDS011;25309;48.686;9.170;2023-02-14T14:11:12;10.83;;;8.83;;
39620;SDS011;25309;48.686;9.170;2023-02-14T14:14:31;12.60;;;10.23;;
39620;SDS011;25309;48.686;9.170;2023-02-14T14:17:03;12.13;;;10.10;;
39620;SDS011;25309;48.686;9.170;2023-02-14T14:19:44;12.37;;;10.07;;
39620;SDS011;25309;48.686;9.170;2023-02-14T14:22:12;14.60;;;10.37;;
39620;SDS011;25309;48.686;9.170;2023-02-14T14:24:49;11.57;;;9.90;;
39620;SDS011;25309;48.686;9.170;2023-02-14T14:27:19;13.20;;;9.60;;
39620;SDS011;25309;48.686;9.170;2023-02-14T14:29:50;12.07;;;9.87;;
39620;SDS011;25309;48.686;9.170;2023-02-14T14:32:24;13.60;;;10.37;;
39620;SDS011;25309;48.686;9.170;2023-02-14T14:34:53;11.30;;;10.03;;
39620;SDS011;25309;48.686;9.170;2023-02-14T14:37:21;12.30;;;9.90;;
39620;SDS011;25309;48.686;9.170;2023-02-14T14:39:50;12.17;;;9.70;;
39620;SDS011;25309;48.686;9.170;2023-02-14T14:42:19;11.90;;;9.53;;
39620;SDS011;25309;48.686;9.170;2023-02-14T14:44:50;12.30;;;10.53;;
39620;SDS011;25309;48.686;9.170;2023-02-14T14:47:19;12.70;;;10.07;;
39620;SDS011;25309;48.686;9.170;2023-02-14T14:49:50;11.93;;;9.83;;
39620;SDS011;25309;48.686;9.170;2023-02-14T14:52:28;14.00;;;10.87;;
39620;SDS011;25309;48.686;9.170;2023-02-14T14:54:59;14.27;;;11.33;;
39620;SDS011;25309;48.686;9.170;2023-02-14T14:57:27;13.97;;;10.40;;
39620;SDS011;25309;48.686;9.170;2023-02-14T15:00:06;13.13;;;10.13;;
39620;SDS011;25309;48.686;9.170;2023-02-14T15:02:56;14.50;;;10.67;;
39620;SDS011;25309;48.686;9.170;2023-02-14T15:05:29;13.90;;;10.80;;
39620;SDS011;25309;48.686;9.170;2023-02-14T15:08:11;15.20;;;10.50;;
39620;SDS011;25309;48.686;9.170;2023-02-14T15:10:46;15.40;;;10.30;;
39620;SDS011;25309;48.686;9.170;2023-02-14T15:13:15;15.53;;;10.57;;